Nieuwegein, Netherlands
Current Conditions -  °F | °C
As of 4:55 PM on Sunday 25 Jan 2015 (Local Time) from EHAM Reporting Station
Drizzle Drizzle  
Wind Chill: 38°   Ceiling: Unl
Heat Index: 43°   Visibility: 6mi
Dew Point: 37°   Wind: 8mph
Humidity: 81%   Direction: 240°WSW
Pressure: 30.33"   Gusts: NA
Location:  52.03°N, 5.08°E
Report Text: EHAM 251555Z 24007KT 210V270 9999 -DZ FEW032 06/03 Q1027 NOSIG
Loading
Personal Weather Stations






























Interactive Weather Map New forecast layout! Learn more

10-Day Weather Forecast

Advertisements
Track Severe Weather on mobile